Hauptseite
METAR-TAF:

METAR-TAF

Flughäfen :

Militärflugplatz Getafe

Madrid-Getafe, Spanien

Breite: 40-18N, Länge: 003-43W, Höhe: 620 m

Beobachtung

Neuester Wetterbericht von vor 38 Minuten, um 06:00 UTC
Wind 13 kt aus Nord/Nordost
Temperatur 5°C
Luftfeuchtigkeit 75%
Luftdruck 1024 hPa
Sichtweite 10 km oder mehr
keine Wolken unter 1500 m und keine Kumulonimbus oder Gewitterwolken

METAR: LEGT 120600Z 03013KT CAVOK 05/01 Q1024

Zeit: 08:38 (06:38 UTC)

Prognose

Neuester Wetterbericht von vor 1 Stunde und 38 Minuten, um 05:00 UTC
Gültige Prognose vom 12 um 06 UTC bis 13 um 06 UTC
Wind 9 kt aus Nordost
Sichtweite 10 km oder mehr
keine Wolken unter 1500 m und keine Kumulonimbus oder Gewitterwolken

TAF: LEGT 120500Z 1206/1306 04009KT CAVOK TX18/1216Z TN04/1206Z

Wetterbeobachtungen und Prognosen von mehr als 4000 Flughäfen (METAR und TAF Bericht).

Die verfügbaren Stationen werden durch gelbe und rote Markierungen auf der Karte dargestellt.

Führen Sie die Maus auf sie, um den Namen der Station zu sehen.

Darauf klicken, um die Beobachtung von Wetterbeobachtungen und Prognosen zu sehen.

Um die Karte zu ändern : klicken Sie auf den grünen Tasten mit einem schwarzen Kreuz Zum Vergrößern, auf den grünen Button mit einem Gedankenstrich zu verkleinern, oder auf die grünen Pfeile für benachbarte Karten.


METAR-TAF: